Time;durP1;ratioP1;P1;durP2;ratioP2;P2;SDS_P1;SDS_P2;PMS_P1;PMS_P2;Temp;Humidity;BMP_temperature;BMP_pressure;BME280_temperature;BME280_humidity;BME280_pressure;Samples;Min_cycle;Max_cycle;Signal;HPM_P1;HPM_P2
2023/01/12 00:01:44;;;;;;;8.40;5.10;;;;;;;2.91;100.00;94606.94;5092801;28;20184;-54
2023/01/12 00:04:13;;;;;;;7.77;5.37;;;;;;;2.89;100.00;94606.22;5092909;28;20257;-55
2023/01/12 00:06:39;;;;;;;10.03;5.93;;;;;;;2.91;100.00;94617.00;5092853;28;20192;-54
2023/01/12 00:09:08;;;;;;;9.43;5.73;;;;;;;2.76;100.00;94614.53;5092802;28;20212;-56
2023/01/12 00:11:35;;;;;;;7.40;4.70;;;;;;;2.93;100.00;94617.72;5093326;28;20241;-54
2023/01/12 00:14:02;;;;;;;7.23;4.80;;;;;;;2.84;100.00;94613.22;5092755;28;20202;-56
2023/01/12 00:16:33;;;;;;;6.70;4.67;;;;;;;2.77;100.00;94619.47;5091227;28;20219;-57
2023/01/12 00:19:16;;;;;;;8.83;5.17;;;;;;;2.71;100.00;94607.25;5091310;28;20268;-55
2023/01/12 00:23:18;;;;;;;6.93;4.57;;;;;;;2.79;100.00;94617.66;5148435;27;20565;-55
2023/01/12 00:25:49;;;;;;;6.30;4.57;;;;;;;2.77;100.00;94629.50;5110181;28;20226;-55
2023/01/12 00:28:15;;;;;;;7.53;5.03;;;;;;;2.76;100.00;94620.38;5110473;28;20206;-56
2023/01/12 00:30:40;;;;;;;9.27;5.40;;;;;;;2.76;100.00;94625.38;5128540;28;20299;-55
2023/01/12 00:33:06;;;;;;;6.30;4.47;;;;;;;2.62;100.00;94592.72;5128722;28;20183;-53
2023/01/12 00:39:28;;;;;;;7.53;4.53;;;;;;;2.69;100.00;94606.53;5124789;27;20339;-54
2023/01/12 00:47:22;;;;;;;6.43;4.70;;;;;;;2.80;100.00;94616.78;5108414;28;20198;-56
2023/01/12 00:49:48;;;;;;;6.33;4.43;;;;;;;2.75;100.00;94616.22;5108022;28;20693;-53
2023/01/12 00:52:18;;;;;;;7.70;5.20;;;;;;;2.81;100.00;94615.09;5108209;28;20184;-56
2023/01/12 00:54:44;;;;;;;6.97;4.40;;;;;;;2.80;100.00;94613.47;5108101;28;20207;-55
2023/01/12 00:57:12;;;;;;;7.07;5.00;;;;;;;2.63;100.00;94611.88;5108104;28;20664;-56
2023/01/12 00:59:37;;;;;;;6.57;4.60;;;;;;;2.67;100.00;94607.53;5107906;28;20738;-56
2023/01/12 01:02:11;;;;;;;6.53;4.30;;;;;;;2.79;100.00;94615.16;5089559;28;20676;-54
2023/01/12 01:04:37;;;;;;;6.47;4.67;;;;;;;2.81;100.00;94597.53;5106573;28;20215;-55
2023/01/12 01:07:02;;;;;;;7.27;4.90;;;;;;;2.92;100.00;94611.09;5107893;28;20274;-53
2023/01/12 01:09:29;;;;;;;6.93;5.00;;;;;;;2.98;100.00;94619.97;5107724;28;20226;-54
2023/01/12 01:11:55;;;;;;;6.90;4.27;;;;;;;2.99;100.00;94624.91;5107767;28;20179;-57
2023/01/12 01:14:20;;;;;;;7.13;4.90;;;;;;;3.08;100.00;94626.91;5107620;28;20212;-57
2023/01/12 01:16:45;;;;;;;7.00;4.67;;;;;;;3.09;100.00;94602.63;5089489;28;20272;-53
2023/01/12 01:19:11;;;;;;;7.10;4.97;;;;;;;2.93;100.00;94614.41;5107561;28;20216;-55
2023/01/12 01:21:37;;;;;;;8.87;4.93;;;;;;;3.08;100.00;94631.13;5107520;28;20271;-54
2023/01/12 01:24:02;;;;;;;7.30;4.57;;;;;;;3.04;100.00;94629.66;5107575;28;20184;-54
2023/01/12 01:26:30;;;;;;;7.53;5.33;;;;;;;2.92;100.00;94616.09;5107621;28;20184;-57
2023/01/12 01:28:56;;;;;;;7.13;4.40;;;;;;;2.88;100.00;94614.66;5107932;28;20672;-54
2023/01/12 01:31:24;;;;;;;6.40;4.57;;;;;;;2.89;100.00;94618.78;5107631;28;20233;-56
2023/01/12 01:33:49;;;;;;;7.40;4.90;;;;;;;2.80;100.00;94611.78;5107821;28;20267;-56
2023/01/12 01:36:17;;;;;;;6.70;4.67;;;;;;;2.86;100.00;94629.00;5107296;28;20746;-54
2023/01/12 01:38:44;;;;;;;7.07;5.20;;;;;;;2.76;100.00;94619.53;5107105;28;20250;-56
2023/01/12 01:41:20;;;;;;;6.53;4.53;;;;;;;2.75;100.00;94628.78;5107195;28;20223;-56
2023/01/12 01:44:04;;;;;;;5.40;3.80;;;;;;;2.72;100.00;94620.59;5107211;28;20602;-55
2023/01/12 01:46:46;;;;;;;6.97;5.07;;;;;;;2.70;100.00;94627.41;5107276;28;20188;-54
2023/01/12 01:49:27;;;;;;;6.37;4.60;;;;;;;2.54;100.00;94617.41;5101726;28;20540;-56
2023/01/12 01:51:55;;;;;;;7.50;5.07;;;;;;;2.55;100.00;94626.53;5075337;28;20192;-56
2023/01/12 01:54:21;;;;;;;6.23;4.30;;;;;;;2.59;100.00;94627.19;5093185;28;20606;-56
2023/01/12 01:56:49;;;;;;;6.40;4.27;;;;;;;2.58;100.00;94623.88;5093498;28;20237;-57
2023/01/12 01:59:21;;;;;;;5.90;4.37;;;;;;;2.45;100.00;94625.41;5093398;28;20188;-53
2023/01/12 02:01:47;;;;;;;6.83;4.47;;;;;;;2.62;100.00;94630.34;5093435;28;20673;-53
2023/01/12 02:04:14;;;;;;;8.27;5.27;;;;;;;2.74;100.00;94633.88;5093363;28;20192;-55
2023/01/12 02:06:41;;;;;;;7.30;4.87;;;;;;;2.75;100.00;94640.53;5093477;28;20192;-52
2023/01/12 02:09:16;;;;;;;7.87;4.77;;;;;;;2.81;100.00;94643.50;5075203;28;20189;-55
2023/01/12 02:17:29;;;;;;;7.40;5.10;;;;;;;2.80;100.00;94644.41;5093575;28;20215;-53
2023/01/12 02:20:19;;;;;;;7.30;4.70;;;;;;;2.80;100.00;94644.41;5093248;28;20207;-54
2023/01/12 02:22:50;;;;;;;8.50;4.90;;;;;;;2.75;100.00;94643.81;5093202;28;20192;-57
2023/01/12 02:25:42;;;;;;;7.97;5.23;;;;;;;2.82;100.00;94639.28;5092956;28;20587;-57
2023/01/12 02:28:26;;;;;;;8.27;4.97;;;;;;;2.76;100.00;94642.13;5093068;28;20188;-55
2023/01/12 02:31:38;;;;;;;6.00;4.97;;;;;;;2.86;100.00;94649.09;5093112;28;20209;-56
2023/01/12 02:34:20;;;;;;;8.80;5.63;;;;;;;2.80;100.00;94643.59;5010313;28;20225;-56
2023/01/12 02:37:10;;;;;;;7.53;5.27;;;;;;;2.83;100.00;94649.22;5010249;28;20581;-53
2023/01/12 02:40:07;;;;;;;6.93;4.73;;;;;;;2.77;100.00;94636.25;5076490;28;20306;-53
2023/01/12 02:42:57;;;;;;;7.10;4.67;;;;;;;2.82;100.00;94617.50;5081777;28;20545;-54
2023/01/12 02:45:38;;;;;;;10.27;4.77;;;;;;;2.94;100.00;94628.56;5092762;28;20201;-54
2023/01/12 02:48:48;;;;;;;7.57;4.67;;;;;;;3.00;100.00;94639.09;5092707;28;20200;-56
2023/01/12 02:51:17;;;;;;;8.20;5.30;;;;;;;2.91;100.00;94629.53;5088555;28;20219;-56
2023/01/12 02:53:50;;;;;;;8.57;5.57;;;;;;;3.05;100.00;94636.31;5092594;28;20633;-57
2023/01/12 02:56:23;;;;;;;7.83;5.07;;;;;;;2.98;100.00;94637.53;5092452;28;20649;-56
2023/01/12 02:58:55;;;;;;;7.17;5.30;;;;;;;2.84;100.00;94628.28;5092824;28;20689;-57
2023/01/12 03:01:23;;;;;;;8.37;5.23;;;;;;;2.75;100.00;94625.47;5091471;28;20180;-53
2023/01/12 03:03:50;;;;;;;9.17;6.17;;;;;;;2.71;100.00;94603.94;5092788;28;20192;-56
2023/01/12 03:06:17;;;;;;;7.53;4.77;;;;;;;2.66;100.00;94619.25;5092219;28;20758;-53
2023/01/12 03:08:46;;;;;;;9.80;5.70;;;;;;;2.85;100.00;94627.38;5092528;28;20189;-54
2023/01/12 03:11:16;;;;;;;7.77;5.07;;;;;;;2.76;100.00;94620.38;5092479;28;20253;-56
2023/01/12 03:13:49;;;;;;;6.53;4.40;;;;;;;2.75;100.00;94613.72;5092291;28;20188;-54
2023/01/12 03:16:19;;;;;;;7.80;4.80;;;;;;;2.68;100.00;94609.94;5092412;28;20212;-55
2023/01/12 03:18:54;;;;;;;8.03;5.07;;;;;;;2.62;100.00;94591.91;5092030;28;20220;-57
2023/01/12 03:21:22;;;;;;;5.10;4.33;;;;;;;2.75;100.00;94618.72;5092128;28;20720;-56
2023/01/12 03:23:59;;;;;;;8.07;4.70;;;;;;;2.77;100.00;94601.88;5073819;28;20192;-53
2023/01/12 03:26:26;;;;;;;7.63;5.27;;;;;;;2.76;100.00;94617.84;5092059;28;20188;-56
2023/01/12 03:29:02;;;;;;;7.77;5.07;;;;;;;2.81;100.00;94627.66;5092298;28;20283;-54
2023/01/12 03:31:28;;;;;;;5.60;4.60;;;;;;;2.67;100.00;94605.81;5092155;28;20207;-54
2023/01/12 03:33:53;;;;;;;8.50;5.17;;;;;;;2.52;100.00;94592.38;5074153;28;20192;-54
2023/01/12 03:36:29;;;;;;;7.67;4.87;;;;;;;2.72;100.00;94605.56;5091798;28;20289;-52
2023/01/12 03:39:02;;;;;;;6.23;4.40;;;;;;;2.71;100.00;94607.25;5092106;28;20218;-56
2023/01/12 03:41:38;;;;;;;6.93;4.60;;;;;;;2.75;100.00;94611.19;5092064;28;20194;-54
2023/01/12 03:44:11;;;;;;;7.97;5.00;;;;;;;2.77;100.00;94621.97;5090780;28;20216;-54
2023/01/12 03:46:42;;;;;;;7.47;4.30;;;;;;;2.69;100.00;94614.06;5091872;28;20277;-54
2023/01/12 03:49:23;;;;;;;6.20;4.60;;;;;;;2.57;100.00;94604.69;5092108;28;20577;-54
2023/01/12 03:51:51;;;;;;;8.33;5.17;;;;;;;2.61;100.00;94603.63;5091438;28;20184;-55
2023/01/12 03:54:18;;;;;;;7.10;5.37;;;;;;;2.46;100.00;94581.91;5091420;28;20220;-53
2023/01/12 03:56:45;;;;;;;6.60;4.20;;;;;;;2.44;100.00;94597.00;5091657;28;20301;-56
2023/01/12 03:59:12;;;;;;;8.27;5.00;;;;;;;2.47;100.00;94583.50;5091340;28;20223;-53
2023/01/12 04:01:38;;;;;;;7.70;4.47;;;;;;;2.63;100.00;94591.81;5091768;28;20636;-56
2023/01/12 04:04:04;;;;;;;7.10;4.33;;;;;;;2.42;100.00;94586.25;5091509;28;20275;-56
2023/01/12 04:06:29;;;;;;;6.70;4.53;;;;;;;2.44;100.00;94591.22;5091409;28;20220;-53
2023/01/12 04:08:54;;;;;;;7.70;4.70;;;;;;;2.42;100.00;94601.31;5091869;28;20621;-53
2023/01/12 04:14:04;;;;;;;5.73;4.50;;;;;;;2.35;100.00;94595.03;5091972;28;20614;-53
2023/01/12 04:16:29;;;;;;;6.70;4.63;;;;;;;2.37;100.00;94592.41;5091449;28;20184;-55
2023/01/12 04:18:55;;;;;;;6.23;4.50;;;;;;;2.51;100.00;94610.03;5091426;28;20281;-57
2023/01/12 04:24:04;;;;;;;5.17;3.97;;;;;;;2.45;100.00;94601.16;5091260;28;20214;-53
2023/01/12 04:26:30;;;;;;;6.33;4.20;;;;;;;2.55;100.00;94599.75;5091309;28;20181;-53
2023/01/12 04:28:55;;;;;;;7.43;4.30;;;;;;;2.64;100.00;94611.00;5091681;28;20219;-56
2023/01/12 04:31:20;;;;;;;8.63;5.13;;;;;;;2.63;100.00;94614.38;5091469;28;20177;-55
2023/01/12 04:33:46;;;;;;;8.13;4.37;;;;;;;2.47;100.00;94606.91;5091311;28;20282;-56
2023/01/12 04:36:11;;;;;;;6.27;4.47;;;;;;;2.45;100.00;94601.16;5091159;28;20267;-57
2023/01/12 04:38:38;;;;;;;7.60;4.20;;;;;;;2.53;100.00;94613.28;5090999;28;20212;-57
2023/01/12 04:41:05;;;;;;;6.47;4.53;;;;;;;2.53;100.00;94610.75;5091244;28;20241;-57
2023/01/12 04:43:30;;;;;;;8.20;4.60;;;;;;;2.58;100.00;94613.03;5091414;28;20722;-54
2023/01/12 04:45:56;;;;;;;8.23;4.87;;;;;;;2.57;100.00;94617.22;5090981;28;20689;-56
2023/01/12 04:48:21;;;;;;;6.53;4.67;;;;;;;2.47;100.00;94613.59;5090878;28;20195;-55
2023/01/12 04:50:49;;;;;;;6.63;4.00;;;;;;;2.64;100.00;94620.22;5098340;22;20230;-55
2023/01/12 04:53:15;;;;;;;9.53;4.90;;;;;;;2.72;100.00;94625.63;5090991;28;20184;-56
2023/01/12 04:55:42;;;;;;;7.90;5.13;;;;;;;2.74;100.00;94622.16;5090713;28;20231;-55
2023/01/12 04:58:08;;;;;;;6.70;4.60;;;;;;;2.65;100.00;94621.84;5090757;28;20352;-57
2023/01/12 05:00:34;;;;;;;8.30;4.53;;;;;;;2.61;100.00;94623.69;5091273;28;20625;-54
2023/01/12 05:03:01;;;;;;;6.77;4.20;;;;;;;2.52;100.00;94619.19;5090796;28;20287;-55
2023/01/12 05:05:27;;;;;;;6.57;4.00;;;;;;;2.52;100.00;94624.22;5091131;28;20223;-57
2023/01/12 05:10:38;;;;;;;9.13;5.13;;;;;;;2.50;100.00;94633.53;5090906;28;20215;-55
2023/01/12 05:13:04;;;;;;;9.13;4.80;;;;;;;2.44;100.00;94621.31;5090665;28;20575;-53
2023/01/12 05:15:29;;;;;;;8.80;5.10;;;;;;;2.67;100.00;94642.66;5090376;28;20204;-54
2023/01/12 05:17:55;;;;;;;6.83;4.43;;;;;;;2.58;100.00;94640.63;5090497;28;20298;-55
2023/01/12 05:20:21;;;;;;;7.73;4.50;;;;;;;2.63;100.00;94641.97;5090865;28;20216;-57
2023/01/12 05:22:47;;;;;;;7.23;4.57;;;;;;;2.53;100.00;94645.88;5090582;28;20242;-57
2023/01/12 05:25:14;;;;;;;6.70;4.63;;;;;;;2.44;100.00;94647.19;5092920;28;20219;-56
2023/01/12 05:27:39;;;;;;;6.90;5.03;;;;;;;2.50;100.00;94646.06;5093893;28;20566;-56
2023/01/12 05:30:06;;;;;;;8.97;5.03;;;;;;;2.57;100.00;94654.88;5094058;28;20196;-54
2023/01/12 05:32:39;;;;;;;8.07;4.57;;;;;;;2.50;100.00;94644.34;5093753;28;20196;-54
2023/01/12 05:35:05;;;;;;;8.17;4.93;;;;;;;2.60;100.00;94664.75;5094019;28;20216;-54
2023/01/12 05:37:38;;;;;;;8.53;4.80;;;;;;;2.53;100.00;94668.47;5075561;28;20683;-54
2023/01/12 05:40:04;;;;;;;10.10;4.57;;;;;;;2.64;100.00;94663.69;5093804;28;20220;-56
2023/01/12 05:45:13;;;;;;;7.47;4.73;;;;;;;2.65;100.00;94680.34;5094139;28;20295;-56
2023/01/12 05:47:39;;;;;;;7.47;4.60;;;;;;;2.54;100.00;94680.91;5093609;28;20289;-56
2023/01/12 05:50:05;;;;;;;8.13;5.20;;;;;;;2.58;100.00;94681.59;5093764;28;20207;-54
2023/01/12 05:52:30;;;;;;;7.37;4.87;;;;;;;2.65;100.00;94692.88;5093395;28;20180;-53
2023/01/12 05:54:55;;;;;;;8.70;4.97;;;;;;;2.70;100.00;94693.47;5101113;22;20284;-54
2023/01/12 05:57:21;;;;;;;8.27;4.93;;;;;;;2.62;100.00;94682.22;5093512;28;20579;-54
2023/01/12 05:59:47;;;;;;;9.33;5.50;;;;;;;2.72;100.00;94688.38;5093219;28;20236;-54
2023/01/12 06:02:16;;;;;;;8.27;4.93;;;;;;;2.68;100.00;94685.22;5093003;28;20677;-54
2023/01/12 06:04:42;;;;;;;8.47;4.63;;;;;;;2.62;100.00;94687.25;5093127;28;20697;-54
2023/01/12 06:07:11;;;;;;;8.83;4.80;;;;;;;2.61;100.00;94678.09;5093334;28;20184;-54
2023/01/12 06:09:37;;;;;;;8.13;5.07;;;;;;;2.59;100.00;94682.41;5093286;28;20275;-54
2023/01/12 06:14:46;;;;;;;9.87;6.30;;;;;;;2.76;100.00;94685.59;5093313;28;20218;-54
2023/01/12 06:17:12;;;;;;;11.20;6.00;;;;;;;2.84;100.00;94703.56;5074724;28;20188;-55
2023/01/12 06:19:37;;;;;;;11.37;5.77;;;;;;;2.79;100.00;94687.94;5093055;28;20284;-54
2023/01/12 06:22:03;;;;;;;10.33;6.27;;;;;;;2.65;100.00;94687.88;5092829;28;20674;-54
2023/01/12 06:24:28;;;;;;;8.20;5.50;;;;;;;2.61;100.00;94678.91;5092942;28;20216;-53
2023/01/12 06:26:54;;;;;;;11.67;5.77;;;;;;;2.57;100.00;94677.44;5092805;28;20681;-54
2023/01/12 06:29:20;;;;;;;8.07;5.23;;;;;;;2.48;100.00;94675.44;5092757;28;20690;-54
2023/01/12 06:31:46;;;;;;;8.00;5.43;;;;;;;2.60;100.00;94679.81;5092830;28;20263;-54
2023/01/12 06:34:12;;;;;;;8.73;5.70;;;;;;;2.71;100.00;94687.53;5092558;28;20196;-54
2023/01/12 06:36:38;;;;;;;8.40;5.43;;;;;;;2.76;100.00;94693.13;5092725;28;20188;-56
2023/01/12 06:39:04;;;;;;;9.73;5.60;;;;;;;2.64;100.00;94682.94;5092435;28;20215;-54
2023/01/12 06:44:13;;;;;;;9.90;5.20;;;;;;;2.56;100.00;94675.84;5092512;28;20245;-53
2023/01/12 06:46:38;;;;;;;10.60;5.90;;;;;;;2.64;100.00;94692.97;5092900;28;20211;-54
2023/01/12 06:49:04;;;;;;;10.37;5.97;;;;;;;2.67;100.00;94688.59;5092610;28;20192;-53
2023/01/12 06:51:29;;;;;;;13.43;6.33;;;;;;;2.75;100.00;94701.53;5092788;28;20211;-54
2023/01/12 06:53:55;;;;;;;12.53;6.50;;;;;;;2.71;100.00;94699.31;5092423;28;20188;-55
2023/01/12 06:56:20;;;;;;;9.67;6.20;;;;;;;2.77;100.00;94692.22;5092158;28;20204;-54
2023/01/12 06:58:46;;;;;;;10.80;6.53;;;;;;;2.85;100.00;94699.38;5092197;28;20694;-55
2023/01/12 07:01:12;;;;;;;9.13;5.40;;;;;;;2.71;100.00;94697.59;5092218;28;20215;-54
2023/01/12 07:03:38;;;;;;;7.87;5.50;;;;;;;2.67;100.00;94700.38;5092270;28;20242;-54
2023/01/12 07:06:04;;;;;;;9.53;6.10;;;;;;;2.64;100.00;94695.50;5092375;28;20212;-54
2023/01/12 07:08:31;;;;;;;9.60;6.50;;;;;;;2.66;100.00;94687.00;5092424;28;20187;-57
2023/01/12 07:11:00;;;;;;;9.47;5.73;;;;;;;2.86;100.00;94709.31;5092071;28;20242;-56
2023/01/12 07:13:25;;;;;;;10.80;6.20;;;;;;;2.89;100.00;94710.88;5091703;28;20657;-57
2023/01/12 07:15:51;;;;;;;9.27;5.60;;;;;;;3.01;100.00;94717.72;5090863;28;20204;-56
2023/01/12 07:18:17;;;;;;;8.73;5.60;;;;;;;2.94;100.00;94708.91;5072970;28;20224;-53
2023/01/12 07:20:42;;;;;;;10.70;5.53;;;;;;;2.90;100.00;94709.97;5072623;28;20298;-55
2023/01/12 07:23:07;;;;;;;8.20;5.30;;;;;;;2.91;100.00;94719.13;5090983;28;20291;-60
2023/01/12 07:25:33;;;;;;;7.33;4.47;;;;;;;2.94;100.00;94713.91;5091242;28;20681;-54
2023/01/12 07:27:58;;;;;;;10.83;5.70;;;;;;;2.95;100.00;94716.34;5092152;28;20196;-53
2023/01/12 07:30:25;;;;;;;7.73;5.43;;;;;;;2.97;100.00;94711.25;5091989;28;20211;-54
2023/01/12 07:32:50;;;;;;;9.20;5.40;;;;;;;2.99;100.00;94711.97;5091799;28;20282;-55
2023/01/12 07:35:17;;;;;;;10.43;5.87;;;;;;;2.96;100.00;94714.66;5092169;28;20246;-54
2023/01/12 07:37:50;;;;;;;10.87;5.90;;;;;;;2.97;100.00;94714.56;5091766;28;20216;-55
2023/01/12 07:40:16;;;;;;;10.93;5.70;;;;;;;3.14;100.00;94719.47;5091887;28;20211;-55
2023/01/12 07:42:42;;;;;;;9.70;5.27;;;;;;;3.15;100.00;94723.59;5092063;28;20188;-55
2023/01/12 07:45:08;;;;;;;8.10;5.27;;;;;;;3.33;100.00;94727.59;5091767;28;20581;-56
2023/01/12 07:47:33;;;;;;;9.13;5.17;;;;;;;3.31;100.00;94734.41;5091413;28;20181;-55
2023/01/12 07:49:59;;;;;;;10.77;5.10;;;;;;;3.18;100.00;94730.97;5091528;28;20251;-58
2023/01/12 07:52:24;;;;;;;8.83;5.40;;;;;;;3.21;100.00;94732.50;5091774;28;20297;-57
2023/01/12 07:54:50;;;;;;;10.87;6.00;;;;;;;3.09;100.00;94708.88;5091622;28;20334;-54
2023/01/12 07:57:15;;;;;;;8.67;5.17;;;;;;;3.16;100.00;94717.69;5091620;28;20180;-57
2023/01/12 07:59:41;;;;;;;9.63;5.40;;;;;;;3.32;100.00;94725.19;5091521;28;20204;-56
2023/01/12 08:02:15;;;;;;;11.57;5.37;;;;;;;3.38;100.00;94737.41;5091709;28;20226;-54
2023/01/12 08:04:41;;;;;;;10.70;5.70;;;;;;;3.33;100.00;94722.56;5091851;28;20719;-55
2023/01/12 08:07:06;;;;;;;7.77;5.10;;;;;;;3.48;100.00;94735.16;5091603;28;20767;-56
2023/01/12 08:09:31;;;;;;;10.40;5.53;;;;;;;3.52;100.00;94752.50;5091182;28;20216;-56
2023/01/12 08:11:57;;;;;;;8.53;5.77;;;;;;;3.57;100.00;94744.72;5091454;28;20184;-55
2023/01/12 08:14:27;;;;;;;8.37;4.90;;;;;;;3.52;100.00;94749.19;5091317;28;20213;-56
2023/01/12 08:16:55;;;;;;;9.00;4.97;;;;;;;3.50;100.00;94753.47;5091526;28;20180;-54
2023/01/12 08:19:24;;;;;;;8.17;5.07;;;;;;;3.53;100.00;94749.13;5091194;28;20290;-54
2023/01/12 08:21:56;;;;;;;7.33;4.20;;;;;;;3.45;100.00;94742.91;5091429;28;20552;-56
2023/01/12 08:24:35;;;;;;;9.37;5.57;;;;;;;3.46;100.00;94745.31;5091296;28;20219;-54
2023/01/12 08:27:05;;;;;;;7.20;4.63;;;;;;;3.53;100.00;94739.06;5091465;28;20199;-56
2023/01/12 08:29:40;;;;;;;8.63;4.73;;;;;;;3.77;100.00;94756.97;5091190;28;20692;-56
2023/01/12 08:32:08;;;;;;;7.00;5.03;;;;;;;3.67;100.00;94763.41;5091073;28;20193;-54
2023/01/12 08:34:34;;;;;;;7.80;5.17;;;;;;;3.70;100.00;94733.88;5091257;28;20636;-56
2023/01/12 08:37:04;;;;;;;11.00;5.83;;;;;;;3.82;100.00;94747.44;5091026;28;20691;-57
2023/01/12 08:39:30;;;;;;;7.83;5.10;;;;;;;3.76;100.00;94755.34;5090964;28;20560;-58
2023/01/12 08:41:55;;;;;;;16.37;8.17;;;;;;;3.80;100.00;94747.53;5091023;28;20204;-55
2023/01/12 08:44:21;;;;;;;10.97;7.63;;;;;;;3.78;100.00;94746.00;5091021;28;20728;-58
2023/01/12 08:46:47;;;;;;;12.40;7.57;;;;;;;3.92;100.00;94756.13;5091127;28;20197;-57
2023/01/12 08:49:14;;;;;;;12.70;6.80;;;;;;;4.00;100.00;94771.56;5090882;28;20242;-53
2023/01/12 08:51:40;;;;;;;9.97;5.50;;;;;;;4.04;100.00;94771.28;5091080;28;20294;-55
2023/01/12 08:54:07;;;;;;;7.70;5.20;;;;;;;4.06;100.00;94766.19;5090834;28;20190;-55
2023/01/12 08:56:33;;;;;;;9.60;5.07;;;;;;;4.43;100.00;94787.47;5090977;28;20660;-54
2023/01/12 08:58:59;;;;;;;11.47;5.67;;;;;;;4.62;100.00;94798.09;5072914;28;20205;-55
2023/01/12 09:01:26;;;;;;;7.63;4.70;;;;;;;4.71;100.00;94780.72;5094215;28;20344;-55
2023/01/12 09:03:51;;;;;;;8.03;4.63;;;;;;;4.79;100.00;94786.09;5094313;28;20204;-55
2023/01/12 09:06:19;;;;;;;4.27;3.20;;;;;;;4.66;100.00;94800.34;5094200;28;20301;-55
2023/01/12 09:08:45;;;;;;;4.10;2.90;;;;;;;4.66;100.00;94825.50;5094267;28;20183;-55
2023/01/12 09:11:12;;;;;;;2.80;2.30;;;;;;;4.65;100.00;94823.06;5094166;28;20212;-57
2023/01/12 09:13:38;;;;;;;3.57;1.93;;;;;;;4.49;100.00;94813.09;5094379;28;20220;-55
2023/01/12 09:16:10;;;;;;;4.30;2.77;;;;;;;4.58;100.00;94789.09;5094203;28;20212;-56
2023/01/12 09:18:36;;;;;;;4.73;2.60;;;;;;;4.44;100.00;94796.66;5093913;28;20228;-57
2023/01/12 09:21:07;;;;;;;4.87;2.87;;;;;;;4.40;100.00;94783.44;5093953;28;20687;-56
2023/01/12 09:23:33;;;;;;;3.50;2.53;;;;;;;4.14;100.00;94774.09;5094057;28;20190;-56
2023/01/12 09:26:07;;;;;;;3.87;2.40;;;;;;;4.20;100.00;94764.47;5093922;28;20307;-56
2023/01/12 09:28:33;;;;;;;6.47;4.13;;;;;;;4.18;100.00;94778.06;5093802;28;20183;-56
2023/01/12 09:31:09;;;;;;;5.13;2.87;;;;;;;4.38;100.00;94760.09;5094343;28;20206;-56
2023/01/12 09:33:36;;;;;;;5.20;2.53;;;;;;;4.56;100.00;94789.19;5093786;28;20193;-55
2023/01/12 09:36:07;;;;;;;3.97;2.77;;;;;;;4.70;100.00;94784.16;5093911;28;20210;-56
2023/01/12 09:38:38;;;;;;;7.77;3.47;;;;;;;4.87;100.00;94813.34;5093562;28;20234;-55
2023/01/12 09:46:57;;;;;;;4.50;3.20;;;;;;;4.85;100.00;94826.03;5093825;28;20207;-58
2023/01/12 09:47:43;;;;;;;4.93;3.20;;;;;;;4.51;100.00;94782.78;5093745;28;20259;-56
2023/01/12 09:50:23;;;;;;;4.27;3.23;;;;;;;4.39;100.00;94776.78;5086861;28;20224;-57
2023/01/12 09:53:22;;;;;;;5.07;3.17;;;;;;;4.43;100.00;94778.22;5093469;28;20182;-56
2023/01/12 09:56:01;;;;;;;5.00;3.47;;;;;;;4.41;100.00;94757.38;5088973;28;20236;-56
2023/01/12 09:58:54;;;;;;;7.43;2.70;;;;;;;4.43;100.00;94770.69;5075181;28;20698;-56
2023/01/12 10:01:20;;;;;;;3.97;3.23;;;;;;;4.60;100.00;94762.13;5093396;28;20220;-57
2023/01/12 10:03:46;;;;;;;4.33;2.80;;;;;;;4.76;100.00;94800.59;5093352;28;20186;-57
2023/01/12 10:06:17;;;;;;;5.30;3.67;;;;;;;5.20;100.00;94816.34;5093404;28;20721;-55
2023/01/12 10:09:02;;;;;;;5.57;2.97;;;;;;;5.37;100.00;94848.06;5093369;28;20197;-57
2023/01/12 10:11:43;;;;;;;4.43;3.00;;;;;;;4.64;100.00;94824.78;5092148;28;20208;-56
2023/01/12 10:14:25;;;;;;;4.33;3.07;;;;;;;4.67;100.00;94804.47;5093522;28;20192;-55
2023/01/12 10:17:31;;;;;;;7.30;2.80;;;;;;;4.86;100.00;94784.03;5093579;28;20648;-57
2023/01/12 10:20:11;;;;;;;6.47;3.37;;;;;;;5.17;100.00;94815.72;5093547;28;20302;-57
2023/01/12 10:22:41;;;;;;;4.60;3.37;;;;;;;5.00;100.00;94820.09;5093267;28;20174;-55
2023/01/12 10:25:18;;;;;;;4.33;3.60;;;;;;;4.55;100.00;94796.81;5093325;28;20697;-54
2023/01/12 10:27:46;;;;;;;4.30;3.17;;;;;;;4.59;100.00;94790.69;5092994;28;20664;-62
2023/01/12 10:30:16;;;;;;;5.90;3.43;;;;;;;4.71;100.00;94790.78;5093094;28;20215;-59
2023/01/12 10:32:42;;;;;;;3.90;2.73;;;;;;;4.73;100.00;94800.75;5074748;28;20187;-54
2023/01/12 10:35:16;;;;;;;6.30;3.83;;;;;;;4.73;100.00;94788.16;5092970;28;20229;-57
2023/01/12 10:37:55;;;;;;;6.10;3.20;;;;;;;4.75;100.00;94794.75;5092804;28;20222;-55
2023/01/12 10:40:23;;;;;;;5.50;3.50;;;;;;;4.67;100.00;94784.31;5092166;28;20222;-59
2023/01/12 10:43:17;;;;;;;4.67;2.60;;;;;;;4.81;100.00;94784.31;5092717;28;20181;-53
2023/01/12 10:45:44;;;;;;;5.00;3.00;;;;;;;5.11;100.00;94787.47;5092979;28;20261;-61
2023/01/12 10:48:23;;;;;;;4.73;3.53;;;;;;;5.11;100.00;94821.94;5092706;28;20577;-57
2023/01/12 10:51:01;;;;;;;4.90;3.13;;;;;;;4.87;100.00;94813.34;5092708;28;20229;-54
2023/01/12 10:53:34;;;;;;;4.50;2.53;;;;;;;4.54;100.00;94785.97;5092601;28;20179;-57
2023/01/12 10:56:09;;;;;;;3.57;2.50;;;;;;;4.35;100.00;94774.53;5074718;28;20209;-61
2023/01/12 10:58:34;;;;;;;5.17;2.83;;;;;;;4.36;100.00;94758.56;5092671;28;20244;-56
2023/01/12 11:01:00;;;;;;;3.57;2.50;;;;;;;4.42;100.00;94771.59;5092839;28;20664;-56
2023/01/12 11:03:40;;;;;;;4.17;3.00;;;;;;;4.44;100.00;94758.91;5092637;28;20231;-57
2023/01/12 11:06:27;;;;;;;4.57;2.93;;;;;;;4.32;100.00;94732.78;5092443;28;20222;-57
2023/01/12 11:08:54;;;;;;;4.70;2.97;;;;;;;4.58;100.00;94762.22;5092364;28;20192;-54
2023/01/12 11:11:23;;;;;;;6.50;2.90;;;;;;;4.36;100.00;94739.25;5092320;28;20207;-55
2023/01/12 11:13:54;;;;;;;3.03;2.37;;;;;;;4.47;100.00;94746.94;5092365;28;20187;-54
2023/01/12 11:16:21;;;;;;;3.27;2.77;;;;;;;4.46;100.00;94729.44;5092347;28;20210;-54
2023/01/12 11:19:16;;;;;;;4.27;3.30;;;;;;;4.45;100.00;94738.69;5092137;28;20703;-56
2023/01/12 11:21:47;;;;;;;3.57;2.90;;;;;;;4.43;100.00;94725.38;5051520;28;20581;-55
2023/01/12 11:24:30;;;;;;;4.77;3.53;;;;;;;4.77;100.00;94749.31;5092432;28;20190;-55
2023/01/12 11:26:59;;;;;;;5.00;3.33;;;;;;;4.65;100.00;94753.41;5092231;28;20194;-56
2023/01/12 11:29:33;;;;;;;4.27;3.10;;;;;;;4.69;100.00;94759.88;5092156;28;20557;-56
2023/01/12 11:32:40;;;;;;;7.23;3.60;;;;;;;4.56;100.00;94716.22;5092237;28;20182;-58
2023/01/12 11:35:39;;;;;;;4.00;2.73;;;;;;;4.37;100.00;94707.31;5092100;28;20210;-55
2023/01/12 11:38:11;;;;;;;4.83;3.20;;;;;;;4.56;100.00;94723.75;5092046;28;20210;-57
2023/01/12 11:40:38;;;;;;;4.80;2.73;;;;;;;4.78;100.00;94735.84;5092079;28;20215;-53
2023/01/12 11:43:59;;;;;;;3.50;2.40;;;;;;;4.91;100.00;94789.59;5092002;28;20186;-60
2023/01/12 11:46:34;;;;;;;4.13;2.57;;;;;;;5.02;100.00;94798.13;5010040;28;20203;-57
2023/01/12 11:49:09;;;;;;;3.33;2.70;;;;;;;4.84;100.00;94795.91;5009678;28;20752;-57
2023/01/12 11:51:35;;;;;;;3.57;2.90;;;;;;;4.68;100.00;94752.41;5063778;28;20203;-54
2023/01/12 11:54:00;;;;;;;3.60;2.40;;;;;;;4.86;100.00;94748.78;5091654;28;20188;-57
2023/01/12 11:56:45;;;;;;;3.60;2.83;;;;;;;5.00;100.00;94774.75;5073763;28;20241;-55
2023/01/12 11:59:34;;;;;;;3.40;2.47;;;;;;;5.18;100.00;94779.53;5091600;28;20219;-56
2023/01/12 12:02:24;;;;;;;4.00;2.73;;;;;;;5.09;100.00;94771.63;5091739;28;20642;-57
2023/01/12 12:05:08;;;;;;;3.23;2.63;;;;;;;4.95;100.00;94751.53;5091474;28;20654;-57
2023/01/12 12:07:37;;;;;;;7.13;3.53;;;;;;;4.99;100.00;94757.19;5091706;28;20580;-58
2023/01/12 12:10:14;;;;;;;4.57;3.40;;;;;;;5.04;100.00;94756.03;5091730;28;20214;-58
2023/01/12 12:13:01;;;;;;;4.30;2.77;;;;;;;4.99;100.00;94755.47;5091585;28;20187;-55
2023/01/12 12:15:59;;;;;;;4.60;2.97;;;;;;;5.02;100.00;94750.25;5091646;28;20255;-54
2023/01/12 12:18:55;;;;;;;4.33;3.30;;;;;;;4.81;100.00;94713.78;5067275;28;20320;-56
2023/01/12 12:21:55;;;;;;;3.63;2.60;;;;;;;4.97;100.00;94734.63;5090951;28;20222;-55
2023/01/12 12:24:39;;;;;;;4.70;3.30;;;;;;;4.74;100.00;94702.50;5098007;22;20234;-55
2023/01/12 12:27:08;;;;;;;6.37;4.03;;;;;;;4.70;100.00;94695.22;5091134;28;20197;-57